Mills, New Mexico
Current Conditions -  °F | °C
As of 11:53 PM on Wednesday 17 Dec 2014 (Local Time) from KRTN Reporting Station
Scattered Clouds Scattered Clouds  
Wind Chill: 17°   Ceiling: Unl
Heat Index: 24°   Visibility: 10mi
Dew Point: 20°   Wind: 6mph
Humidity: 84%   Direction: 70°ENE
Pressure: 29.97"   Gusts: NA
Location:  36.08°N, 104.26°W
Report Text: KRTN 180653Z AUTO 07005KT 10SM SCT110 M04/M07 A2997 RMK AO2 SLP160 T10441067 400501083
Loading
Personal Weather Stations






























Interactive Weather Map New forecast layout! Learn more

10-Day Weather Forecast

Advertisements
Track Severe Weather on mobile